createdAt,value
2018-07-24T00:00:47.145Z,11.07
2018-07-24T00:03:16.274Z,12.03
2018-07-24T00:05:45.404Z,12.50
2018-07-24T00:08:14.498Z,11.60
2018-07-24T00:10:43.622Z,12.33
2018-07-24T00:13:12.761Z,11.43
2018-07-24T00:15:41.865Z,11.60
2018-07-24T00:18:11.016Z,11.97
2018-07-24T00:20:40.123Z,11.20
2018-07-24T00:23:09.225Z,11.67
2018-07-24T00:25:38.353Z,11.53
2018-07-24T00:28:07.478Z,11.97
2018-07-24T00:30:36.597Z,11.33
2018-07-24T00:33:05.749Z,11.33
2018-07-24T00:35:34.879Z,10.70
2018-07-24T00:38:04.010Z,11.67
2018-07-24T00:40:33.126Z,11.87
2018-07-24T00:43:02.245Z,11.60
2018-07-24T00:45:31.350Z,11.10
2018-07-24T00:48:00.493Z,11.10
2018-07-24T00:50:29.662Z,11.67
2018-07-24T00:52:58.765Z,11.50
2018-07-24T00:55:27.885Z,12.30
2018-07-24T00:57:57.005Z,11.03
2018-07-24T01:00:26.165Z,11.13
2018-07-24T01:02:55.281Z,10.40
2018-07-24T01:05:24.421Z,11.83
2018-07-24T01:07:53.522Z,11.43
2018-07-24T01:10:22.665Z,11.90
2018-07-24T01:12:51.838Z,12.07
2018-07-24T01:15:20.937Z,10.97
2018-07-24T01:17:50.417Z,11.80
2018-07-24T01:20:19.681Z,10.83
2018-07-24T01:22:48.817Z,10.73
2018-07-24T01:25:17.945Z,11.43
2018-07-24T01:27:47.069Z,11.10
2018-07-24T01:30:16.178Z,12.37
2018-07-24T01:32:45.334Z,13.10
2018-07-24T01:35:14.437Z,14.23
2018-07-24T01:37:43.538Z,13.57
2018-07-24T01:40:12.684Z,11.83
2018-07-24T01:42:41.788Z,11.93
2018-07-24T01:45:10.921Z,12.97
2018-07-24T01:47:40.066Z,13.53
2018-07-24T01:50:09.193Z,12.07
2018-07-24T01:52:38.301Z,11.90
2018-07-24T01:55:08.009Z,10.80
2018-07-24T01:57:37.134Z,12.70
2018-07-24T02:00:06.874Z,11.77
2018-07-24T02:02:35.997Z,13.13
2018-07-24T02:05:05.157Z,13.70
2018-07-24T02:07:34.258Z,14.00
2018-07-24T02:10:03.390Z,13.50
2018-07-24T02:12:32.565Z,12.37
2018-07-24T02:15:01.741Z,11.97
2018-07-24T02:17:30.897Z,10.90
2018-07-24T02:20:00.339Z,10.87
2018-07-24T02:22:29.479Z,10.87
2018-07-24T02:24:58.633Z,10.30
2018-07-24T02:27:27.761Z,9.83
2018-07-24T02:29:56.849Z,9.43
2018-07-24T02:32:25.993Z,9.60
2018-07-24T02:34:55.186Z,10.43
2018-07-24T02:37:24.306Z,10.33
2018-07-24T02:39:53.433Z,10.40
2018-07-24T02:42:22.541Z,12.33
2018-07-24T02:44:51.645Z,11.27
2018-07-24T02:47:20.829Z,11.17
2018-07-24T02:49:49.919Z,11.00
2018-07-24T02:52:19.030Z,11.27
2018-07-24T02:54:48.241Z,11.77
2018-07-24T02:57:17.390Z,10.83
2018-07-24T02:59:46.494Z,11.37
2018-07-24T03:02:15.722Z,11.83
2018-07-24T03:04:44.810Z,10.73
2018-07-24T03:07:13.925Z,11.40
2018-07-24T03:09:43.035Z,10.50
2018-07-24T03:12:12.146Z,10.80
2018-07-24T03:14:41.276Z,9.90
2018-07-24T03:17:10.397Z,10.80
2018-07-24T03:19:39.498Z,11.13
2018-07-24T03:22:08.594Z,11.30
2018-07-24T03:24:37.717Z,10.60
2018-07-24T03:27:06.830Z,10.67
2018-07-24T03:29:35.948Z,12.00
2018-07-24T03:32:05.061Z,11.10
2018-07-24T03:34:34.182Z,11.50
2018-07-24T03:37:03.333Z,10.60
2018-07-24T03:39:32.461Z,11.17
2018-07-24T03:42:01.546Z,10.77
2018-07-24T03:44:30.685Z,11.40
2018-07-24T03:46:59.817Z,11.67
2018-07-24T03:49:28.913Z,12.80
2018-07-24T03:51:58.082Z,12.13
2018-07-24T03:54:27.168Z,12.43
2018-07-24T03:56:56.289Z,12.07
2018-07-24T03:59:25.409Z,11.93
2018-07-24T04:01:54.518Z,12.87
2018-07-24T04:04:23.626Z,11.23
2018-07-24T04:06:52.782Z,12.93
2018-07-24T04:09:21.977Z,12.73
2018-07-24T04:11:51.102Z,12.80
2018-07-24T04:14:20.226Z,12.00
2018-07-24T04:16:49.313Z,13.03
2018-07-24T04:19:18.417Z,13.97
2018-07-24T04:21:47.553Z,13.33
2018-07-24T04:24:16.663Z,12.03
2018-07-24T04:26:45.779Z,11.97
2018-07-24T04:29:14.930Z,12.47
2018-07-24T04:31:44.106Z,13.57
2018-07-24T04:34:13.206Z,12.80
2018-07-24T04:36:42.315Z,13.60
2018-07-24T04:39:11.438Z,13.00
2018-07-24T04:41:40.546Z,14.27
2018-07-24T04:44:09.677Z,12.60
2018-07-24T04:46:38.777Z,14.33
2018-07-24T04:49:07.881Z,12.63
2018-07-24T04:51:37.013Z,13.67
2018-07-24T04:54:06.210Z,12.57
2018-07-24T04:56:35.325Z,11.97
2018-07-24T04:59:04.504Z,13.53
2018-07-24T05:01:33.605Z,13.50
2018-07-24T05:04:02.719Z,14.33
2018-07-24T05:06:31.857Z,14.70
2018-07-24T05:09:00.957Z,15.07
2018-07-24T05:11:30.201Z,16.20
2018-07-24T05:13:59.334Z,15.87
2018-07-24T05:16:28.449Z,18.63
2018-07-24T05:18:57.547Z,18.13
2018-07-24T05:21:26.676Z,17.17
2018-07-24T05:23:55.786Z,16.33
2018-07-24T05:26:24.905Z,15.77
2018-07-24T05:28:54.025Z,15.57
2018-07-24T05:31:23.182Z,17.00
2018-07-24T05:33:52.297Z,14.87
2018-07-24T05:36:21.451Z,17.37
2018-07-24T05:38:50.626Z,17.40
2018-07-24T05:41:19.693Z,15.27
2018-07-24T05:43:48.853Z,14.97
2018-07-24T05:46:18.072Z,16.33
2018-07-24T05:48:47.223Z,14.50
2018-07-24T05:51:16.361Z,16.57
2018-07-24T05:53:45.563Z,16.43
2018-07-24T05:56:14.881Z,14.63
2018-07-24T05:58:44.106Z,15.43
2018-07-24T06:01:13.213Z,15.10
2018-07-24T06:03:42.412Z,15.67
2018-07-24T06:06:11.590Z,16.80
2018-07-24T06:08:40.788Z,15.80
2018-07-24T06:11:10.079Z,16.90
2018-07-24T06:13:39.179Z,16.60
2018-07-24T06:16:08.308Z,15.97
2018-07-24T06:18:37.397Z,16.23
2018-07-24T06:21:06.518Z,15.80
2018-07-24T06:23:35.687Z,16.30
2018-07-24T06:26:04.775Z,15.47
2018-07-24T06:28:33.897Z,15.90
2018-07-24T06:31:03.087Z,15.67
2018-07-24T06:33:32.266Z,16.03
2018-07-24T06:36:01.502Z,14.10
2018-07-24T06:38:30.602Z,16.10
2018-07-24T06:40:59.725Z,14.20
2018-07-24T06:43:28.860Z,14.47
2018-07-24T06:45:57.961Z,13.07
2018-07-24T06:48:27.074Z,15.47
2018-07-24T06:50:56.341Z,14.47
2018-07-24T06:53:25.502Z,14.50
2018-07-24T06:55:54.614Z,14.33
2018-07-24T06:58:23.821Z,14.13
2018-07-24T07:00:52.954Z,14.33
2018-07-24T07:03:22.133Z,14.97
2018-07-24T07:05:51.188Z,13.33
2018-07-24T07:08:20.301Z,13.93
2018-07-24T07:10:49.449Z,14.57
2018-07-24T07:13:18.616Z,13.70
2018-07-24T07:15:47.670Z,12.93
2018-07-24T07:18:16.795Z,12.70
2018-07-24T07:20:45.925Z,13.10
2018-07-24T07:23:15.079Z,12.33
2018-07-24T07:25:44.165Z,12.10
2018-07-24T07:28:13.301Z,13.50
2018-07-24T07:30:42.410Z,12.10
2018-07-24T07:33:11.517Z,11.57
2018-07-24T07:35:40.641Z,11.93
2018-07-24T07:38:09.757Z,11.57
2018-07-24T07:40:38.878Z,12.43
2018-07-24T07:43:08.037Z,12.07
2018-07-24T07:45:37.145Z,10.90
2018-07-24T07:48:06.393Z,10.53
2018-07-24T07:50:35.534Z,11.43
2018-07-24T07:53:04.645Z,10.83
2018-07-24T07:55:33.769Z,10.00
2018-07-24T07:58:02.891Z,10.13
2018-07-24T08:00:32.122Z,8.93
2018-07-24T08:03:01.224Z,9.13
2018-07-24T08:05:30.390Z,8.87
2018-07-24T08:07:59.486Z,8.50
2018-07-24T08:10:28.609Z,7.90
2018-07-24T08:12:57.738Z,8.37
2018-07-24T08:15:26.857Z,8.07
2018-07-24T08:17:56.005Z,6.97
2018-07-24T08:20:25.118Z,7.60
2018-07-24T08:22:54.257Z,7.73
2018-07-24T08:25:23.373Z,7.07
2018-07-24T08:27:52.561Z,7.67
2018-07-24T08:30:21.701Z,7.63
2018-07-24T08:32:51.087Z,7.17
2018-07-24T08:35:20.267Z,7.13
2018-07-24T08:37:49.444Z,6.90
2018-07-24T08:40:18.609Z,7.10
2018-07-24T08:42:47.734Z,7.20
2018-07-24T08:45:16.885Z,6.70
2018-07-24T08:47:46.022Z,6.90
2018-07-24T08:50:15.165Z,6.93
2018-07-24T08:52:44.324Z,6.20
2018-07-24T08:55:13.752Z,5.90
2018-07-24T08:57:43.096Z,6.10
2018-07-24T09:00:12.161Z,6.47
2018-07-24T09:02:42.197Z,6.40
2018-07-24T09:05:11.349Z,6.30
2018-07-24T09:07:40.518Z,6.07
2018-07-24T09:10:09.731Z,6.10
2018-07-24T09:12:38.801Z,6.07
2018-07-24T09:15:07.943Z,5.70
2018-07-24T09:17:37.053Z,5.57
2018-07-24T09:20:06.157Z,6.40
2018-07-24T09:22:35.547Z,5.70
2018-07-24T09:25:04.742Z,5.53
2018-07-24T09:27:33.884Z,5.97
2018-07-24T09:30:03.018Z,6.30
2018-07-24T09:32:32.192Z,5.77
2018-07-24T09:35:01.574Z,5.40
2018-07-24T09:37:32.271Z,5.43
2018-07-24T09:40:01.509Z,5.57
2018-07-24T09:42:30.685Z,5.00
2018-07-24T09:44:59.833Z,5.17
2018-07-24T09:47:28.963Z,4.83
2018-07-24T09:49:58.077Z,4.83
2018-07-24T09:52:28.238Z,5.30
2018-07-24T09:54:57.410Z,4.90
2018-07-24T09:57:26.600Z,5.47
2018-07-24T09:59:55.730Z,5.00
2018-07-24T10:02:28.060Z,4.93
2018-07-24T10:04:57.157Z,5.33
2018-07-24T10:07:26.315Z,4.97
2018-07-24T10:09:55.453Z,4.47
2018-07-24T10:12:24.632Z,4.50
2018-07-24T10:14:53.790Z,4.60
2018-07-24T10:17:23.001Z,4.67
2018-07-24T10:19:52.215Z,4.17
2018-07-24T10:22:31.570Z,5.17
2018-07-24T10:25:00.706Z,4.47
2018-07-24T10:27:29.850Z,4.63
2018-07-24T10:29:59.033Z,5.00
2018-07-24T10:32:28.292Z,5.30
2018-07-24T10:34:57.493Z,5.13
2018-07-24T10:37:26.694Z,5.10
2018-07-24T10:39:55.918Z,5.10
2018-07-24T10:42:26.212Z,4.67
2018-07-24T10:44:57.425Z,5.60
2018-07-24T10:47:27.640Z,5.57
2018-07-24T10:49:56.906Z,5.33
2018-07-24T10:52:30.399Z,5.50
2018-07-24T10:54:59.526Z,5.20
2018-07-24T10:57:28.694Z,5.73
2018-07-24T10:59:58.041Z,5.57
2018-07-24T11:02:31.339Z,5.20
2018-07-24T11:05:00.533Z,5.87
2018-07-24T11:07:29.649Z,5.30
2018-07-24T11:09:58.775Z,5.73
2018-07-24T11:12:27.902Z,5.60
2018-07-24T11:14:57.074Z,6.00
2018-07-24T11:17:27.360Z,5.90
2018-07-24T11:19:57.327Z,5.27
2018-07-24T11:22:26.516Z,5.60
2018-07-24T11:24:55.617Z,5.43
2018-07-24T11:27:24.787Z,5.63
2018-07-24T11:29:54.093Z,5.30
2018-07-24T11:32:23.197Z,5.40
2018-07-24T11:34:52.310Z,5.43
2018-07-24T11:37:21.467Z,5.20
2018-07-24T11:39:50.625Z,5.43
2018-07-24T11:42:19.806Z,4.80
2018-07-24T11:44:49.061Z,4.90
2018-07-24T11:47:18.166Z,5.00
2018-07-24T11:49:47.330Z,5.27
2018-07-24T11:52:16.442Z,4.97
2018-07-24T11:54:45.549Z,4.97
2018-07-24T11:57:14.694Z,5.50
2018-07-24T11:59:43.795Z,5.27
2018-07-24T12:02:12.947Z,5.30
2018-07-24T12:04:42.109Z,5.00
2018-07-24T12:07:11.163Z,5.30
2018-07-24T12:09:40.253Z,4.90
2018-07-24T12:12:09.537Z,4.83
2018-07-24T12:14:38.772Z,5.63
2018-07-24T12:17:07.858Z,5.20
2018-07-24T12:19:37.069Z,4.83
2018-07-24T12:22:06.201Z,4.60
2018-07-24T12:24:35.311Z,5.33
2018-07-24T12:27:04.556Z,5.10
2018-07-24T12:29:33.695Z,5.20
2018-07-24T12:32:02.837Z,5.13
2018-07-24T12:34:31.998Z,4.80
2018-07-24T12:37:01.165Z,5.10
2018-07-24T12:39:30.309Z,5.27
2018-07-24T12:41:59.425Z,5.10
2018-07-24T12:44:28.562Z,5.43
2018-07-24T12:46:57.689Z,5.10
2018-07-24T12:49:26.788Z,5.60
2018-07-24T12:51:55.917Z,6.13
2018-07-24T12:54:25.013Z,5.40
2018-07-24T12:56:54.160Z,5.60
2018-07-24T12:59:23.288Z,5.70
2018-07-24T13:01:52.469Z,5.90
2018-07-24T13:04:21.594Z,5.40
2018-07-24T13:06:50.738Z,5.50
2018-07-24T13:09:20.903Z,5.60
2018-07-24T13:11:50.084Z,5.57
2018-07-24T13:14:19.201Z,5.60
2018-07-24T13:16:48.330Z,5.53
2018-07-24T13:19:17.481Z,5.57
2018-07-24T13:21:46.650Z,5.70
2018-07-24T13:24:15.785Z,5.90
2018-07-24T13:26:44.926Z,6.20
2018-07-24T13:29:14.041Z,5.87
2018-07-24T13:31:43.188Z,6.00
2018-07-24T13:34:12.269Z,6.57
2018-07-24T13:36:41.417Z,5.93
2018-07-24T13:39:11.597Z,6.10
2018-07-24T13:41:41.955Z,5.87
2018-07-24T13:44:11.109Z,5.70
2018-07-24T13:46:40.214Z,6.03
2018-07-24T13:49:09.335Z,6.30
2018-07-24T13:51:38.490Z,6.00
2018-07-24T13:54:07.644Z,6.00
2018-07-24T13:56:36.750Z,5.60
2018-07-24T13:59:05.927Z,6.20
2018-07-24T14:01:35.122Z,6.00
2018-07-24T14:04:04.352Z,5.77
2018-07-24T14:06:33.477Z,6.00
2018-07-24T14:09:02.638Z,5.90
2018-07-24T14:11:31.754Z,5.40
2018-07-24T14:14:00.901Z,5.37
2018-07-24T14:16:29.982Z,5.33
2018-07-24T14:18:59.097Z,5.60
2018-07-24T14:21:28.205Z,5.53
2018-07-24T14:23:57.317Z,5.10
2018-07-24T14:26:26.478Z,5.40
2018-07-24T14:28:55.549Z,5.70
2018-07-24T14:31:24.690Z,5.67
2018-07-24T14:33:54.217Z,5.47
2018-07-24T14:36:23.372Z,5.63
2018-07-24T14:38:52.537Z,5.80
2018-07-24T14:41:21.701Z,5.57
2018-07-24T14:43:50.846Z,5.60
2018-07-24T14:46:19.993Z,5.60
2018-07-24T14:48:49.106Z,5.70
2018-07-24T14:51:18.257Z,5.47
2018-07-24T14:53:47.409Z,5.27
2018-07-24T14:56:16.513Z,5.70
2018-07-24T14:58:45.655Z,5.57
2018-07-24T15:01:14.726Z,5.67
2018-07-24T15:03:43.870Z,6.00
2018-07-24T15:06:12.961Z,6.13
2018-07-24T15:08:42.065Z,5.90
2018-07-24T15:11:11.206Z,6.10
2018-07-24T15:13:40.299Z,5.50
2018-07-24T15:16:09.400Z,5.90
2018-07-24T15:18:38.534Z,5.87
2018-07-24T15:21:07.849Z,5.57
2018-07-24T15:23:36.921Z,5.50
2018-07-24T15:26:06.095Z,5.63
2018-07-24T15:28:35.248Z,5.50
2018-07-24T15:31:04.357Z,5.70
2018-07-24T15:33:33.502Z,5.60
2018-07-24T15:36:02.578Z,5.73
2018-07-24T15:38:31.702Z,5.20
2018-07-24T15:41:00.793Z,5.20
2018-07-24T15:43:29.961Z,5.77
2018-07-24T15:45:59.149Z,5.23
2018-07-24T15:48:28.263Z,5.90
2018-07-24T15:50:57.421Z,5.77
2018-07-24T15:53:26.632Z,5.90
2018-07-24T15:55:55.844Z,5.43
2018-07-24T15:58:25.081Z,6.07
2018-07-24T16:00:54.465Z,5.90
2018-07-24T16:03:23.747Z,5.43
2018-07-24T16:05:53.143Z,5.50
2018-07-24T16:08:22.906Z,5.43
2018-07-24T16:10:52.445Z,5.27
2018-07-24T16:13:21.997Z,5.67
2018-07-24T16:15:52.231Z,5.93
2018-07-24T16:18:22.381Z,5.67
2018-07-24T16:20:52.437Z,5.80
2018-07-24T16:23:21.958Z,5.93
2018-07-24T16:25:51.360Z,5.70
2018-07-24T16:28:21.101Z,5.43
2018-07-24T16:30:50.642Z,5.70
2018-07-24T16:33:20.158Z,5.90
2018-07-24T16:35:51.711Z,5.53
2018-07-24T16:38:22.768Z,6.73
2018-07-24T16:40:52.631Z,6.03
2018-07-24T16:43:22.264Z,5.73
2018-07-24T16:45:51.866Z,5.50
2018-07-24T16:48:21.329Z,6.27
2018-07-24T16:50:50.961Z,6.10
2018-07-24T16:53:20.557Z,5.97
2018-07-24T16:55:52.735Z,5.63
2018-07-24T16:58:22.328Z,5.67
2018-07-24T17:00:52.327Z,5.60
2018-07-24T17:03:22.289Z,6.20
2018-07-24T17:05:52.028Z,5.93
2018-07-24T17:08:21.686Z,5.97
2018-07-24T17:10:51.038Z,5.63
2018-07-24T17:13:20.721Z,5.77
2018-07-24T17:15:50.164Z,5.70
2018-07-24T17:18:19.991Z,6.40
2018-07-24T17:20:49.723Z,5.70
2018-07-24T17:23:20.719Z,5.60
2018-07-24T17:25:50.676Z,5.80
2018-07-24T17:28:19.902Z,5.73
2018-07-24T17:30:51.460Z,5.60
2018-07-24T17:33:24.083Z,5.60
2018-07-24T17:35:53.224Z,5.47
2018-07-24T17:38:22.449Z,6.10
2018-07-24T17:40:51.710Z,5.80
2018-07-24T17:43:20.876Z,5.70
2018-07-24T17:45:50.288Z,5.73
2018-07-24T17:48:19.526Z,5.57
2018-07-24T17:50:48.738Z,5.87
2018-07-24T17:53:18.001Z,5.97
2018-07-24T17:55:47.165Z,5.57
2018-07-24T17:58:16.250Z,5.53
2018-07-24T18:00:45.371Z,5.67
2018-07-24T18:03:14.460Z,5.90
2018-07-24T18:05:43.565Z,7.17
2018-07-24T18:08:12.693Z,12.83
2018-07-24T18:10:41.780Z,9.40
2018-07-24T18:13:10.898Z,7.63
2018-07-24T18:15:40.013Z,7.60
2018-07-24T18:18:09.167Z,6.83
2018-07-24T18:20:38.260Z,6.70
2018-07-24T18:23:07.385Z,6.30
2018-07-24T18:25:36.508Z,6.23
2018-07-24T18:28:05.712Z,5.97
2018-07-24T18:30:34.869Z,5.90
2018-07-24T18:33:04.022Z,6.10
2018-07-24T18:35:33.129Z,6.13
2018-07-24T18:38:02.222Z,5.97
2018-07-24T18:40:31.320Z,6.33
2018-07-24T18:43:00.421Z,6.37
2018-07-24T18:45:29.528Z,6.10
2018-07-24T18:47:58.617Z,6.30
2018-07-24T18:50:27.702Z,5.97
2018-07-24T18:52:56.823Z,6.20
2018-07-24T18:55:25.913Z,6.07
2018-07-24T18:57:55.014Z,5.70
2018-07-24T19:00:24.105Z,6.30
2018-07-24T19:02:53.470Z,6.17
2018-07-24T19:05:22.604Z,6.07
2018-07-24T19:07:51.748Z,5.70
2018-07-24T19:10:20.877Z,5.73
2018-07-24T19:12:50.373Z,6.10
2018-07-24T19:15:19.497Z,6.13
2018-07-24T19:17:48.610Z,6.67
2018-07-24T19:20:17.701Z,6.20
2018-07-24T19:22:46.821Z,5.60
2018-07-24T19:25:15.918Z,5.73
2018-07-24T19:27:45.101Z,6.13
2018-07-24T19:30:14.257Z,6.17
2018-07-24T19:32:43.569Z,6.43
2018-07-24T19:35:12.668Z,5.83
2018-07-24T19:37:41.773Z,6.43
2018-07-24T19:40:10.937Z,5.90
2018-07-24T19:42:40.313Z,5.53
2018-07-24T19:45:09.441Z,6.30
2018-07-24T19:47:38.575Z,6.47
2018-07-24T19:50:07.721Z,6.90
2018-07-24T19:52:37.953Z,7.33
2018-07-24T19:55:07.074Z,6.30
2018-07-24T19:57:36.153Z,6.83
2018-07-24T20:00:06.965Z,7.37
2018-07-24T20:02:36.126Z,7.10
2018-07-24T20:05:05.270Z,7.50
2018-07-24T20:07:34.389Z,7.67
2018-07-24T20:10:04.829Z,6.80
2018-07-24T20:12:33.993Z,6.70
2018-07-24T20:15:03.230Z,6.87
2018-07-24T20:17:32.337Z,6.60
2018-07-24T20:20:07.008Z,7.10
2018-07-24T20:22:36.128Z,6.87
2018-07-24T20:25:05.557Z,7.67
2018-07-24T20:27:34.753Z,8.23
2018-07-24T20:30:04.022Z,8.27
2018-07-24T20:32:33.165Z,7.63
2018-07-24T20:35:02.308Z,8.03
2018-07-24T20:37:31.365Z,8.70
2018-07-24T20:40:00.485Z,9.17
2018-07-24T20:42:29.581Z,8.90
2018-07-24T20:44:58.705Z,8.47
2018-07-24T20:47:27.821Z,8.27
2018-07-24T20:49:56.913Z,8.17
2018-07-24T20:52:26.077Z,8.43
2018-07-24T20:54:55.202Z,8.23
2018-07-24T20:57:24.282Z,9.07
2018-07-24T20:59:53.390Z,8.63
2018-07-24T21:02:22.480Z,8.83
2018-07-24T21:04:51.721Z,8.97
2018-07-24T21:07:20.877Z,8.63
2018-07-24T21:09:50.090Z,8.03
2018-07-24T21:12:19.379Z,8.20
2018-07-24T21:14:48.570Z,8.77
2018-07-24T21:17:17.877Z,8.00
2018-07-24T21:19:47.077Z,8.53
2018-07-24T21:22:16.189Z,8.70
2018-07-24T21:24:45.284Z,8.33
2018-07-24T21:27:14.412Z,8.00
2018-07-24T21:29:43.597Z,7.63
2018-07-24T21:32:12.797Z,8.13
2018-07-24T21:34:42.017Z,7.87
2018-07-24T21:37:11.023Z,7.80
2018-07-24T21:39:40.093Z,8.10
2018-07-24T21:42:09.257Z,8.50
2018-07-24T21:44:38.367Z,8.60
2018-07-24T21:47:07.506Z,8.53
2018-07-24T21:49:36.618Z,8.00
2018-07-24T21:52:05.705Z,8.37
2018-07-24T21:54:34.808Z,7.80
2018-07-24T21:57:03.928Z,8.00
2018-07-24T21:59:33.014Z,8.37
2018-07-24T22:02:02.134Z,8.00
2018-07-24T22:04:31.237Z,7.77
2018-07-24T22:07:00.325Z,7.57
2018-07-24T22:09:29.425Z,7.60
2018-07-24T22:11:58.549Z,7.83
2018-07-24T22:14:27.641Z,7.73
2018-07-24T22:16:56.752Z,7.80
2018-07-24T22:19:25.900Z,8.03
2018-07-24T22:21:54.929Z,8.33
2018-07-24T22:24:24.025Z,7.40
2018-07-24T22:26:53.257Z,7.80
2018-07-24T22:29:22.597Z,8.50
2018-07-24T22:31:51.744Z,8.17
2018-07-24T22:34:20.853Z,7.70
2018-07-24T22:36:49.958Z,8.07
2018-07-24T22:39:19.040Z,8.23
2018-07-24T22:41:48.129Z,7.47
2018-07-24T22:44:17.224Z,8.63
2018-07-24T22:46:46.333Z,7.90
2018-07-24T22:49:15.414Z,7.83
2018-07-24T22:51:44.555Z,8.37
2018-07-24T22:54:13.636Z,8.20
2018-07-24T22:56:42.763Z,8.00
2018-07-24T22:59:11.830Z,7.80
2018-07-24T23:01:40.909Z,8.50
2018-07-24T23:04:10.017Z,7.60
2018-07-24T23:06:39.129Z,8.10
2018-07-24T23:09:09.813Z,8.33
2018-07-24T23:11:39.229Z,8.00
2018-07-24T23:14:08.325Z,7.80
2018-07-24T23:16:37.421Z,8.80
2018-07-24T23:19:06.506Z,7.77
2018-07-24T23:21:35.605Z,8.40
2018-07-24T23:24:04.694Z,8.93
2018-07-24T23:26:33.782Z,8.87
2018-07-24T23:29:02.882Z,8.90
2018-07-24T23:31:31.993Z,8.37
2018-07-24T23:34:01.104Z,9.10
2018-07-24T23:36:30.349Z,8.80
2018-07-24T23:38:59.432Z,9.27
2018-07-24T23:41:28.528Z,9.27
2018-07-24T23:43:57.621Z,9.07
2018-07-24T23:46:26.737Z,8.03
2018-07-24T23:48:55.829Z,8.10
2018-07-24T23:51:24.914Z,8.47
2018-07-24T23:53:54.009Z,8.70
2018-07-24T23:56:23.117Z,8.10
2018-07-24T23:58:52.242Z,8.37
